createdAt,value
2018-07-10T00:01:27.823Z,87.42
2018-07-10T00:04:07.142Z,87.40
2018-07-10T00:08:49.815Z,85.87
2018-07-10T00:11:28.709Z,87.73
2018-07-10T00:13:57.687Z,86.57
2018-07-10T00:16:26.999Z,85.80
2018-07-10T00:18:56.542Z,86.58
2018-07-10T00:21:25.730Z,86.50
2018-07-10T00:23:54.915Z,86.35
2018-07-10T00:26:24.180Z,87.08
2018-07-10T00:28:53.676Z,87.43
2018-07-10T00:31:23.033Z,87.75
2018-07-10T00:33:52.276Z,87.87
2018-07-10T00:36:21.622Z,87.82
2018-07-10T00:38:58.767Z,87.19
2018-07-10T00:41:30.856Z,87.05
2018-07-10T00:44:00.613Z,87.91
2018-07-10T00:46:30.968Z,87.10
2018-07-10T00:49:00.166Z,87.27
2018-07-10T00:51:29.840Z,87.95
2018-07-10T00:53:59.174Z,88.09
2018-07-10T00:56:28.126Z,88.03
2018-07-10T00:58:57.555Z,87.36
2018-07-10T01:01:27.212Z,86.89
2018-07-10T01:03:56.263Z,86.74
2018-07-10T01:06:25.295Z,87.08
2018-07-10T01:08:54.554Z,87.63
2018-07-10T01:11:23.840Z,87.87
2018-07-10T01:13:53.095Z,87.95
2018-07-10T01:16:27.544Z,87.83
2018-07-10T01:18:59.304Z,87.63
2018-07-10T01:21:28.474Z,86.64
2018-07-10T01:23:59.878Z,86.85
2018-07-10T01:26:35.423Z,86.73
2018-07-10T01:29:10.918Z,86.84
2018-07-10T01:31:42.073Z,87.18
2018-07-10T01:34:11.266Z,87.19
2018-07-10T01:36:40.203Z,87.88
2018-07-10T01:39:09.255Z,88.52
2018-07-10T01:41:38.501Z,88.12
2018-07-10T01:44:07.662Z,88.32
2018-07-10T01:46:36.635Z,87.40
2018-07-10T01:49:05.879Z,87.81
2018-07-10T01:51:35.663Z,87.40
2018-07-10T01:54:04.953Z,88.08
2018-07-10T01:56:34.242Z,88.37
2018-07-10T01:59:03.375Z,87.95
2018-07-10T02:01:32.602Z,88.24
2018-07-10T02:04:02.053Z,88.83
2018-07-10T02:06:31.465Z,86.75
2018-07-10T02:09:00.424Z,86.52
2018-07-10T02:11:29.771Z,87.48
2018-07-10T02:13:58.952Z,87.21
2018-07-10T02:16:28.102Z,88.36
2018-07-10T02:18:57.341Z,87.91
2018-07-10T02:21:26.337Z,87.88
2018-07-10T05:35:56.586Z,77.09
2018-07-10T05:38:31.250Z,77.85
2018-07-10T05:41:01.058Z,78.34
2018-07-10T05:43:30.430Z,78.32
2018-07-10T05:45:59.558Z,78.34
2018-07-10T05:48:29.915Z,77.78
2018-07-10T05:50:59.062Z,78.00
2018-07-10T05:53:28.198Z,78.72
2018-07-10T05:55:57.422Z,78.33
2018-07-10T05:58:26.700Z,79.61
2018-07-10T06:00:55.957Z,77.79
2018-07-10T06:03:25.070Z,76.86
2018-07-10T06:05:54.264Z,76.03
2018-07-10T06:08:23.240Z,73.92
2018-07-10T06:10:52.502Z,74.02
2018-07-10T06:13:21.758Z,75.44
2018-07-10T06:15:51.060Z,72.99
2018-07-10T06:18:20.031Z,71.05
2018-07-10T06:20:49.225Z,71.17
2018-07-10T06:23:21.038Z,72.07
2018-07-10T06:25:50.719Z,70.78
2018-07-10T06:28:28.452Z,71.83
2018-07-10T06:31:02.111Z,70.54
2018-07-10T06:33:31.355Z,70.46
2018-07-10T06:36:18.651Z,71.60
2018-07-10T06:38:49.301Z,71.12
2018-07-10T06:41:18.367Z,69.90
2018-07-10T06:43:56.648Z,70.21
2018-07-10T06:46:44.585Z,70.69
2018-07-10T06:49:27.321Z,69.59
2018-07-10T06:52:06.311Z,69.24
2018-07-10T06:54:49.321Z,68.14
2018-07-10T06:57:18.906Z,68.25
2018-07-10T06:59:48.219Z,66.83
2018-07-10T07:02:17.367Z,68.24
2018-07-10T07:04:46.343Z,66.77
2018-07-10T07:07:15.801Z,67.57
2018-07-10T07:09:44.830Z,67.42
2018-07-10T07:12:14.503Z,68.51
2018-07-10T07:14:43.728Z,66.61
2018-07-10T07:17:12.984Z,66.32
2018-07-10T07:19:42.357Z,66.19
2018-07-10T07:22:11.381Z,65.43
2018-07-10T07:24:40.683Z,65.43
2018-07-10T07:27:09.862Z,66.40
2018-07-10T07:29:38.886Z,65.61
2018-07-10T07:32:08.171Z,62.81
2018-07-10T07:34:37.446Z,63.55
2018-07-10T07:37:06.878Z,63.08
2018-07-10T07:39:36.143Z,62.46
2018-07-10T07:42:05.213Z,63.25
2018-07-10T07:44:34.429Z,62.86
2018-07-10T07:47:03.667Z,63.87
2018-07-10T07:49:33.056Z,62.28
2018-07-10T07:52:02.239Z,63.07
2018-07-10T07:54:31.516Z,61.41
2018-07-10T07:57:00.411Z,61.02
2018-07-10T07:59:29.847Z,59.57
2018-07-10T08:01:59.146Z,60.27
2018-07-10T08:04:28.400Z,62.90
2018-07-10T08:06:57.796Z,62.27
2018-07-10T08:09:26.822Z,59.63
2018-07-10T08:11:56.073Z,58.15
2018-07-10T08:14:25.286Z,57.98
2018-07-10T08:16:54.918Z,58.38
2018-07-10T08:19:24.254Z,58.87
2018-07-10T08:21:53.582Z,57.82
2018-07-10T08:24:24.977Z,59.35
2018-07-10T08:26:57.189Z,58.50
2018-07-10T08:29:26.798Z,56.53
2018-07-10T08:31:56.276Z,56.07
2018-07-10T08:34:27.047Z,56.69
2018-07-10T08:36:56.166Z,57.75
2018-07-10T08:39:25.614Z,59.07
2018-07-10T08:41:54.923Z,59.51
2018-07-10T08:44:24.363Z,57.79
2018-07-10T08:46:57.130Z,57.34
2018-07-10T08:49:29.448Z,56.93
2018-07-10T08:51:58.537Z,57.18
2018-07-10T08:54:27.627Z,56.85
2018-07-10T08:56:56.870Z,55.63
2018-07-10T08:59:26.126Z,54.52
2018-07-10T09:01:55.360Z,55.48
2018-07-10T09:04:24.650Z,55.69
2018-07-10T09:06:53.878Z,53.76
2018-07-10T09:09:23.288Z,53.84
2018-07-10T09:11:52.582Z,53.92
2018-07-10T09:14:21.923Z,54.97
2018-07-10T09:16:51.572Z,53.91
2018-07-10T09:19:26.263Z,53.07
2018-07-10T09:21:58.595Z,53.89
2018-07-10T09:24:27.933Z,53.76
2018-07-10T09:26:57.191Z,53.94
2018-07-10T09:29:26.319Z,54.32
2018-07-10T09:31:56.096Z,54.15
2018-07-10T09:34:25.215Z,52.01
2018-07-10T09:36:54.454Z,54.44
2018-07-10T09:39:23.826Z,54.74
2018-07-10T09:41:53.120Z,53.54
2018-07-10T09:44:22.194Z,54.32
2018-07-10T09:46:51.553Z,54.17
2018-07-10T09:49:20.654Z,55.99
2018-07-10T09:51:50.016Z,53.56
2018-07-10T09:54:19.245Z,54.52
2018-07-10T09:56:48.544Z,53.43
2018-07-10T09:59:17.768Z,53.86
2018-07-10T10:01:47.237Z,53.51
2018-07-10T10:04:16.612Z,53.70
2018-07-10T10:06:45.839Z,52.88
2018-07-10T10:09:15.222Z,51.78
2018-07-10T10:11:44.294Z,52.53
2018-07-10T10:14:13.757Z,54.16
2018-07-10T10:16:43.075Z,52.40
2018-07-10T10:19:12.215Z,52.25
2018-07-10T10:21:41.476Z,51.43
2018-07-10T10:24:10.609Z,49.89
2018-07-10T10:26:39.980Z,46.69
2018-07-10T10:29:09.368Z,40.21
2018-07-10T10:31:38.664Z,36.19
2018-07-10T10:34:07.742Z,35.32
2018-07-10T10:36:36.823Z,32.52
2018-07-10T10:39:06.284Z,29.89
2018-07-10T10:41:35.377Z,29.78
2018-07-10T10:44:04.660Z,28.41
2018-07-10T10:46:34.211Z,27.42
2018-07-10T10:49:03.548Z,29.32
2018-07-10T10:51:32.887Z,30.76
2018-07-10T10:54:02.482Z,29.85
2018-07-10T10:56:31.790Z,29.35
2018-07-10T10:59:01.204Z,30.15
2018-07-10T11:01:30.755Z,30.25
2018-07-10T11:04:00.052Z,29.59
2018-07-10T11:06:30.463Z,28.34
2018-07-10T11:09:00.276Z,28.78
2018-07-10T11:11:31.303Z,27.78
2018-07-10T11:14:02.033Z,24.74
2018-07-10T11:16:31.126Z,26.29
2018-07-10T11:19:25.543Z,26.72
2018-07-10T11:22:04.450Z,25.31
2018-07-10T11:24:48.664Z,26.04
2018-07-10T11:27:28.759Z,27.82
2018-07-10T11:29:58.050Z,27.68
2018-07-10T11:32:27.285Z,27.02
2018-07-10T11:34:56.485Z,25.43
2018-07-10T11:37:25.833Z,27.53
2018-07-10T11:39:55.174Z,30.45
2018-07-10T11:42:24.650Z,35.34
2018-07-10T11:44:54.101Z,34.96
2018-07-10T11:47:23.380Z,36.23
2018-07-10T11:49:52.705Z,36.62
2018-07-10T11:52:21.832Z,38.74
2018-07-10T11:54:51.135Z,39.06
2018-07-10T11:57:20.743Z,35.20
2018-07-10T11:59:50.000Z,32.81
2018-07-10T12:02:19.307Z,29.54
2018-07-10T12:04:48.549Z,27.48
2018-07-10T12:07:17.685Z,24.09
2018-07-10T12:09:57.579Z,22.46
2018-07-10T12:12:26.814Z,25.54
2018-07-10T12:14:56.119Z,24.41
2018-07-10T12:17:25.334Z,23.33
2018-07-10T12:19:54.602Z,22.40
2018-07-10T12:22:23.830Z,22.40
2018-07-10T12:24:53.010Z,21.59
2018-07-10T12:27:22.239Z,21.40
2018-07-10T12:29:51.498Z,21.68
2018-07-10T12:32:20.703Z,22.42
2018-07-10T12:34:49.884Z,22.14
2018-07-10T12:37:19.080Z,22.36
2018-07-10T12:39:48.072Z,21.51
2018-07-10T12:42:17.254Z,20.31
2018-07-10T12:44:46.390Z,20.07
2018-07-10T12:47:15.629Z,21.12
2018-07-10T12:49:44.835Z,22.73
2018-07-10T12:52:13.980Z,21.95
2018-07-10T12:54:42.976Z,22.06
2018-07-10T12:57:12.983Z,21.78
2018-07-10T12:59:42.409Z,25.31
2018-07-10T13:02:11.807Z,26.53
2018-07-10T13:04:41.072Z,28.25
2018-07-10T13:07:10.168Z,28.78
2018-07-10T13:09:39.398Z,29.96
2018-07-10T13:12:08.520Z,30.20
2018-07-10T13:14:37.378Z,31.88
2018-07-10T13:17:06.643Z,32.05
2018-07-10T13:19:37.135Z,30.33
2018-07-10T13:22:06.640Z,33.14
2018-07-10T13:24:35.763Z,34.61
2018-07-10T13:27:05.165Z,34.26
2018-07-10T13:29:34.468Z,35.97
2018-07-10T13:32:03.737Z,34.72
2018-07-10T13:34:33.091Z,36.26
2018-07-10T13:37:02.333Z,36.73
2018-07-10T13:39:31.666Z,37.68
2018-07-10T13:42:00.842Z,37.71
2018-07-10T13:44:30.133Z,40.01
2018-07-10T13:46:59.095Z,40.01
2018-07-10T13:49:28.319Z,38.16
2018-07-10T13:51:57.717Z,37.81
2018-07-10T13:54:27.015Z,38.64
2018-07-10T13:56:56.192Z,39.46
2018-07-10T13:59:27.248Z,37.25
2018-07-10T14:01:56.672Z,32.74
2018-07-10T14:04:25.494Z,30.50
2018-07-10T14:06:54.543Z,30.74
2018-07-10T14:09:23.730Z,32.24
2018-07-10T14:11:53.055Z,31.62
2018-07-10T14:14:22.407Z,29.62
2018-07-10T14:16:51.643Z,30.65
2018-07-10T14:19:20.929Z,32.32
2018-07-10T14:21:50.275Z,32.89
2018-07-10T14:24:19.349Z,33.06
2018-07-10T14:26:48.630Z,33.76
2018-07-10T14:29:17.900Z,35.30
2018-07-10T14:31:47.014Z,35.43
2018-07-10T14:34:16.043Z,36.17
2018-07-10T14:36:45.244Z,36.92
2018-07-10T14:39:14.542Z,38.71
2018-07-10T14:41:43.814Z,37.18
2018-07-10T14:44:13.623Z,37.68
2018-07-10T14:46:42.821Z,38.27
2018-07-10T14:49:12.172Z,37.42
2018-07-10T14:51:44.339Z,37.70
2018-07-10T14:54:13.585Z,37.88
2018-07-10T14:56:43.050Z,39.41
2018-07-10T14:59:12.703Z,39.47
2018-07-10T15:01:41.843Z,40.67
2018-07-10T15:04:11.152Z,39.68
2018-07-10T15:06:40.417Z,40.66
2018-07-10T15:09:10.242Z,40.39
2018-07-10T15:11:39.546Z,41.06
2018-07-10T15:14:10.085Z,40.07
2018-07-10T15:16:44.281Z,38.06
2018-07-10T15:19:13.218Z,38.46
2018-07-10T15:21:42.533Z,39.16
2018-07-10T15:24:11.715Z,39.51
2018-07-10T15:26:40.781Z,38.30
2018-07-10T15:29:10.122Z,37.45
2018-07-10T15:31:39.410Z,39.59
2018-07-10T15:34:08.714Z,39.24
2018-07-10T15:36:37.650Z,39.85
2018-07-10T15:39:06.829Z,39.09
2018-07-10T15:41:36.004Z,39.78
2018-07-10T15:44:05.180Z,40.90
2018-07-10T15:46:34.122Z,42.27
2018-07-10T15:49:03.212Z,43.83
2018-07-10T15:51:32.467Z,44.01
2018-07-10T15:54:01.675Z,45.82
2018-07-10T15:56:30.922Z,45.71
2018-07-10T15:59:00.180Z,45.53
2018-07-10T16:01:29.523Z,46.18
2018-07-10T16:03:58.766Z,46.71
2018-07-10T16:06:30.568Z,45.48
2018-07-10T16:09:30.846Z,47.47
2018-07-10T16:12:03.419Z,46.85
2018-07-10T16:14:33.068Z,47.02
2018-07-10T16:17:06.891Z,46.81
2018-07-10T16:19:44.933Z,47.32
2018-07-10T16:22:17.779Z,48.33
2018-07-10T16:24:50.658Z,48.25
2018-07-10T16:27:25.043Z,48.79
2018-07-10T16:29:54.207Z,48.13
2018-07-10T16:32:23.608Z,47.98
2018-07-10T16:34:53.032Z,47.55
2018-07-10T16:37:22.606Z,47.90
2018-07-10T16:39:51.748Z,48.86
2018-07-10T16:42:25.935Z,49.01
2018-07-10T16:44:55.021Z,49.72
2018-07-10T16:47:28.670Z,49.30
2018-07-10T16:50:01.912Z,49.30
2018-07-10T16:52:44.338Z,50.24
2018-07-10T16:55:13.662Z,48.96
2018-07-10T16:57:43.694Z,50.77
2018-07-10T17:00:12.949Z,51.05
2018-07-10T17:02:42.262Z,52.21
2018-07-10T17:05:11.453Z,52.46
2018-07-10T17:07:40.481Z,52.80
2018-07-10T17:10:09.714Z,51.31
2018-07-10T17:12:38.983Z,52.98
2018-07-10T17:15:08.649Z,53.41
2018-07-10T17:17:37.826Z,54.52
2018-07-10T17:20:11.447Z,54.42
2018-07-10T17:22:40.492Z,54.88
2018-07-10T17:25:10.125Z,54.70
2018-07-10T17:27:41.435Z,55.88
2018-07-10T17:30:10.691Z,54.72
2018-07-10T17:32:40.035Z,55.51
2018-07-10T17:35:09.340Z,55.56
2018-07-10T17:37:43.482Z,55.89
2018-07-10T17:40:12.702Z,55.46
2018-07-10T17:42:42.238Z,56.24
2018-07-10T17:45:12.779Z,56.20
2018-07-10T17:47:41.874Z,56.14
2018-07-10T17:50:11.165Z,56.53
2018-07-10T17:52:40.264Z,56.21
2018-07-10T17:55:09.555Z,56.75
2018-07-10T17:57:39.467Z,57.02
2018-07-10T18:00:08.728Z,57.18
2018-07-10T18:02:37.657Z,56.62
2018-07-10T18:05:07.005Z,56.59
2018-07-10T18:07:36.211Z,57.91
2018-07-10T18:10:05.496Z,58.10
2018-07-10T18:12:34.771Z,56.74
2018-07-10T18:15:03.599Z,57.42
2018-07-10T18:17:32.872Z,57.27
2018-07-10T18:20:02.587Z,57.58
2018-07-10T18:22:31.635Z,57.95
2018-07-10T18:25:00.876Z,57.18
2018-07-10T18:27:30.094Z,57.19
2018-07-10T18:29:59.038Z,57.62
2018-07-10T18:32:27.963Z,57.44
2018-07-10T18:34:57.021Z,57.40
2018-07-10T18:37:26.260Z,57.68
2018-07-10T18:39:55.557Z,56.94
2018-07-10T18:42:24.864Z,57.23
2018-07-10T18:44:53.763Z,57.21
2018-07-10T18:47:22.820Z,57.57
2018-07-10T18:49:54.035Z,57.19
2018-07-10T18:52:25.013Z,57.59
2018-07-10T18:54:54.006Z,57.34
2018-07-10T18:59:34.123Z,57.35
2018-07-10T19:02:11.430Z,57.54
2018-07-10T19:05:07.438Z,58.43
2018-07-10T19:07:39.661Z,58.20
2018-07-10T19:10:08.556Z,58.49
2018-07-10T19:12:38.146Z,57.32
2018-07-10T19:15:07.685Z,57.47
2018-07-10T19:17:37.260Z,57.13
2018-07-10T19:20:09.379Z,56.86
2018-07-10T19:22:54.352Z,57.06
2018-07-10T19:25:24.150Z,57.97
2018-07-10T19:27:55.754Z,57.98
2018-07-10T19:30:40.305Z,57.41
2018-07-10T19:33:09.442Z,57.35
2018-07-10T19:35:38.698Z,57.71
2018-07-10T19:38:07.899Z,58.14
2018-07-10T19:40:37.089Z,58.92
2018-07-10T19:43:06.435Z,58.60
2018-07-10T19:45:35.766Z,58.53
2018-07-10T19:48:05.604Z,58.19
2018-07-10T19:50:39.850Z,59.37
2018-07-10T19:53:09.125Z,58.59
2018-07-10T19:55:41.186Z,59.29
2018-07-10T19:58:30.413Z,59.20
2018-07-10T20:01:10.567Z,58.63
2018-07-10T20:04:46.871Z,58.95
2018-07-10T20:07:22.843Z,57.89
2018-07-10T20:09:56.537Z,57.84
2018-07-10T20:12:41.601Z,58.35
2018-07-10T20:17:20.755Z,57.79
2018-07-10T20:20:05.089Z,58.45
2018-07-10T20:25:13.346Z,58.76
2018-07-10T20:27:49.595Z,60.37
2018-07-10T20:31:34.670Z,59.21
2018-07-10T20:34:17.936Z,59.56
2018-07-10T20:36:52.927Z,60.30
2018-07-10T20:39:22.975Z,59.26
2018-07-10T20:41:52.233Z,58.96
2018-07-10T20:44:21.458Z,59.78
2018-07-10T20:46:55.243Z,59.02
2018-07-10T20:49:33.847Z,59.27
2018-07-10T20:52:05.900Z,60.80
2018-07-10T20:54:44.071Z,59.98
2018-07-10T20:57:23.562Z,62.26
2018-07-10T20:59:57.738Z,63.70
2018-07-10T21:03:39.366Z,62.82
2018-07-10T21:06:21.064Z,62.29
2018-07-10T21:09:13.026Z,60.89
2018-07-10T21:12:49.249Z,61.79
2018-07-10T21:15:22.902Z,60.75
2018-07-10T21:17:56.892Z,60.11
2018-07-10T21:20:31.414Z,60.99
2018-07-10T21:23:07.462Z,60.25
2018-07-10T21:27:53.236Z,60.76
2018-07-10T21:30:32.183Z,61.03
2018-07-10T21:33:06.944Z,61.13
2018-07-10T21:35:49.363Z,62.03
2018-07-10T21:38:28.519Z,61.99
2018-07-10T21:42:11.370Z,62.31
2018-07-10T21:44:51.051Z,62.22
2018-07-10T21:48:40.024Z,61.90
2018-07-10T21:51:09.294Z,61.80
2018-07-10T21:53:38.422Z,61.97
2018-07-10T21:56:07.680Z,62.42
2018-07-10T21:58:36.812Z,62.25
2018-07-10T22:01:44.504Z,62.34
2018-07-10T22:04:18.094Z,64.29
2018-07-10T22:06:53.191Z,63.73
2018-07-10T22:09:24.434Z,62.98
2018-07-10T22:11:53.845Z,63.58
2018-07-10T22:14:23.427Z,64.73
2018-07-10T22:16:52.364Z,66.21
2018-07-10T22:19:25.668Z,65.61
2018-07-10T22:21:55.959Z,66.14
2018-07-10T22:42:12.778Z,60.77
2018-07-10T22:44:48.301Z,61.65
2018-07-10T22:47:19.139Z,63.44
2018-07-10T22:49:49.919Z,64.26
2018-07-10T22:52:19.252Z,62.51
2018-07-10T22:54:48.550Z,62.46
2018-07-10T22:57:17.799Z,63.95
2018-07-10T22:59:46.830Z,64.85
2018-07-10T23:02:15.779Z,65.38
2018-07-10T23:04:44.671Z,64.10
2018-07-10T23:07:13.940Z,63.57
2018-07-10T23:09:42.891Z,63.17
2018-07-10T23:12:12.127Z,63.94
2018-07-10T23:14:41.090Z,63.81
2018-07-10T23:17:10.383Z,64.21
2018-07-10T23:19:39.703Z,65.32
2018-07-10T23:22:08.954Z,64.46
2018-07-10T23:24:38.130Z,64.01
2018-07-10T23:27:07.655Z,63.33
2018-07-10T23:29:37.748Z,64.05
2018-07-10T23:32:07.994Z,62.96
2018-07-10T23:34:36.967Z,63.23
2018-07-10T23:37:09.955Z,63.69
2018-07-10T23:39:44.653Z,62.46
2018-07-10T23:42:29.642Z,62.92
2018-07-10T23:45:02.960Z,64.00
2018-07-10T23:47:33.550Z,64.26
2018-07-10T23:50:34.837Z,63.13
2018-07-10T23:53:45.948Z,63.06
2018-07-10T23:56:15.454Z,62.98
2018-07-10T23:58:44.948Z,62.36
